createdAt,value
2022-09-02T00:01:30.986Z,15.14
2022-09-02T00:04:32.622Z,15.03
2022-09-02T00:07:35.638Z,14.80
2022-09-02T00:10:38.645Z,14.89
2022-09-02T00:13:40.331Z,14.95
2022-09-02T00:16:42.093Z,14.42
2022-09-02T00:19:43.757Z,14.39
2022-09-02T00:22:47.004Z,14.32
2022-09-02T00:25:48.677Z,14.52
2022-09-02T00:28:56.060Z,14.32
2022-09-02T00:31:58.322Z,14.39
2022-09-02T00:34:59.989Z,14.30
2022-09-02T00:38:05.133Z,14.37
2022-09-02T00:41:07.770Z,14.50
2022-09-02T00:44:11.044Z,14.58
2022-09-02T00:47:13.816Z,14.69
2022-09-02T00:50:16.676Z,14.63
2022-09-02T00:53:19.959Z,14.58
2022-09-02T00:56:23.535Z,14.51
2022-09-02T00:59:27.602Z,14.18
2022-09-02T01:02:30.070Z,14.21
2022-09-02T01:05:34.052Z,13.91
2022-09-02T01:08:37.765Z,14.19
2022-09-02T01:11:41.119Z,14.39
2022-09-02T01:14:42.747Z,14.40
2022-09-02T01:17:46.887Z,14.17
2022-09-02T01:20:48.733Z,14.01
2022-09-02T01:23:52.218Z,14.06
2022-09-02T01:26:54.877Z,14.00
2022-09-02T01:29:58.218Z,14.20
2022-09-02T01:33:00.109Z,14.27
2022-09-02T01:36:01.965Z,13.92
2022-09-02T01:39:05.118Z,14.00
2022-09-02T01:42:06.947Z,13.91
2022-09-02T01:45:09.143Z,13.87
2022-09-02T01:48:11.424Z,13.77
2022-09-02T01:51:16.699Z,13.51
2022-09-02T01:54:19.742Z,13.69
2022-09-02T01:57:21.466Z,13.42
2022-09-02T02:00:24.040Z,13.61
2022-09-02T02:03:25.749Z,13.76
2022-09-02T02:06:27.958Z,13.78
2022-09-02T02:09:31.037Z,13.39
2022-09-02T02:12:32.688Z,13.17
2022-09-02T02:15:36.736Z,13.33
2022-09-02T02:18:38.537Z,13.34
2022-09-02T02:21:40.318Z,13.40
2022-09-02T02:24:43.437Z,13.47
2022-09-02T02:27:45.064Z,13.30
2022-09-02T02:30:46.713Z,13.34
2022-09-02T02:33:48.330Z,13.40
2022-09-02T02:36:50.106Z,13.08
2022-09-02T02:39:53.201Z,13.20
2022-09-02T02:42:55.060Z,13.33
2022-09-02T02:45:56.708Z,13.38
2022-09-02T02:48:58.937Z,13.42
2022-09-02T02:52:00.608Z,13.24
2022-09-02T02:55:03.896Z,13.18
2022-09-02T02:58:06.076Z,13.26
2022-09-02T03:01:07.806Z,13.23
2022-09-02T03:04:09.510Z,12.97
2022-09-02T03:07:11.189Z,12.91
2022-09-02T03:10:14.240Z,12.93
2022-09-02T03:13:15.901Z,12.96
2022-09-02T03:16:17.685Z,12.81
2022-09-02T03:19:19.513Z,12.99
2022-09-02T03:22:21.201Z,13.06
2022-09-02T03:25:25.028Z,13.04
2022-09-02T03:28:27.207Z,13.15
2022-09-02T03:31:29.649Z,13.15
2022-09-02T03:34:31.799Z,13.03
2022-09-02T03:37:33.536Z,13.01
2022-09-02T03:40:36.734Z,13.08
2022-09-02T03:43:38.524Z,12.97
2022-09-02T03:46:40.318Z,13.08
2022-09-02T03:49:43.736Z,13.04
2022-09-02T03:52:45.677Z,13.01
2022-09-02T03:55:49.216Z,13.15
2022-09-02T03:58:52.960Z,13.02
2022-09-02T04:01:54.680Z,13.00
2022-09-02T04:04:56.366Z,12.86
2022-09-02T04:07:58.023Z,12.76
2022-09-02T04:11:04.484Z,12.49
2022-09-02T04:14:06.114Z,12.57
2022-09-02T04:17:07.911Z,12.66
2022-09-02T04:20:11.578Z,12.52
2022-09-02T04:23:13.257Z,12.40
2022-09-02T04:26:17.188Z,12.43
2022-09-02T04:29:18.949Z,12.68
2022-09-02T04:32:20.741Z,12.81
2022-09-02T04:35:22.361Z,12.61
2022-09-02T04:38:23.992Z,12.81
2022-09-02T04:41:28.014Z,12.83
2022-09-02T04:44:29.626Z,12.92
2022-09-02T04:47:31.349Z,12.84
2022-09-02T04:50:32.977Z,12.75
2022-09-02T04:53:34.760Z,12.83
2022-09-02T04:56:39.204Z,12.77
2022-09-02T04:59:40.912Z,12.65
2022-09-02T05:02:42.617Z,12.70
2022-09-02T05:05:44.325Z,12.66
2022-09-02T05:08:46.457Z,12.62
2022-09-02T05:11:49.902Z,12.67
2022-09-02T05:14:51.555Z,12.18
2022-09-02T05:17:53.217Z,12.38
2022-09-02T05:20:56.131Z,12.25
2022-09-02T05:23:58.066Z,12.43
2022-09-02T05:27:01.161Z,12.58
2022-09-02T05:30:02.947Z,12.55
2022-09-02T05:33:04.648Z,12.67
2022-09-02T05:36:07.266Z,12.57
2022-09-02T05:39:08.952Z,12.57
2022-09-02T05:42:12.035Z,12.66
2022-09-02T05:45:15.619Z,12.87
2022-09-02T05:48:18.340Z,12.53
2022-09-02T05:51:20.258Z,12.70
2022-09-02T05:54:23.167Z,12.76
2022-09-02T05:57:26.753Z,12.82
2022-09-02T06:00:28.435Z,12.89
2022-09-02T06:03:30.162Z,12.89
2022-09-02T06:06:32.246Z,12.99
2022-09-02T06:09:33.999Z,12.91
2022-09-02T06:12:41.931Z,12.99
2022-09-02T06:15:44.693Z,12.92
2022-09-02T06:18:47.670Z,12.97
2022-09-02T06:21:49.548Z,12.84
2022-09-02T06:24:51.175Z,12.80
2022-09-02T06:27:54.225Z,12.86
2022-09-02T06:30:55.998Z,12.98
2022-09-02T06:33:58.171Z,12.86
2022-09-02T06:37:00.500Z,12.81
2022-09-02T06:40:02.261Z,12.93
2022-09-02T06:43:05.566Z,12.76
2022-09-02T06:46:07.913Z,13.01
2022-09-02T06:49:09.987Z,12.77
2022-09-02T06:52:13.249Z,12.86
2022-09-02T06:55:14.894Z,12.96
2022-09-02T06:58:17.934Z,13.07
2022-09-02T07:01:20.143Z,12.99
2022-09-02T07:04:21.991Z,13.00
2022-09-02T07:07:23.637Z,13.13
2022-09-02T07:10:25.322Z,13.17
2022-09-02T07:13:28.406Z,13.22
2022-09-02T07:16:31.206Z,13.12
2022-09-02T07:19:32.921Z,13.28
2022-09-02T07:22:34.652Z,13.29
2022-09-02T07:25:38.302Z,13.42
2022-09-02T07:28:41.481Z,13.63
2022-09-02T07:31:44.680Z,13.54
2022-09-02T07:34:46.349Z,13.66
2022-09-02T07:37:47.970Z,13.67
2022-09-02T07:40:49.676Z,13.65
2022-09-02T07:44:00.311Z,13.85
2022-09-02T07:47:01.939Z,13.66
2022-09-02T07:50:21.287Z,13.80
2022-09-02T07:53:23.768Z,13.96
2022-09-02T07:56:25.612Z,13.69
2022-09-02T07:59:28.724Z,13.94
2022-09-02T08:02:32.288Z,14.06
2022-09-02T08:05:34.563Z,14.18
2022-09-02T08:08:36.223Z,14.16
2022-09-02T08:11:38.634Z,14.32
2022-09-02T08:14:41.722Z,14.31
2022-09-02T08:17:43.353Z,14.43
2022-09-02T08:20:45.136Z,14.40
2022-09-02T08:23:46.838Z,14.49
2022-09-02T08:26:48.531Z,14.55
2022-09-02T08:29:51.563Z,14.59
2022-09-02T08:32:53.231Z,14.62
2022-09-02T08:35:54.935Z,14.72
2022-09-02T08:38:56.591Z,14.62
2022-09-02T08:42:04.548Z,14.76
2022-09-02T08:45:11.108Z,14.86
2022-09-02T08:48:16.048Z,15.02
2022-09-02T08:51:20.175Z,15.35
2022-09-02T08:54:25.582Z,15.17
2022-09-02T08:57:27.375Z,15.28
2022-09-02T09:00:35.408Z,15.11
2022-09-02T09:03:42.652Z,15.41
2022-09-02T09:06:50.492Z,15.51
2022-09-02T09:09:59.599Z,15.53
2022-09-02T09:13:08.008Z,15.59
2022-09-02T09:16:16.841Z,15.72
2022-09-02T09:19:24.737Z,15.68
2022-09-02T09:22:29.924Z,15.77
2022-09-02T09:25:32.090Z,15.83
2022-09-02T09:28:37.699Z,15.96
2022-09-02T09:31:40.847Z,15.96
2022-09-02T09:35:03.344Z,16.06
2022-09-02T09:38:12.289Z,16.40
2022-09-02T09:41:16.029Z,16.10
2022-09-02T09:44:37.819Z,16.02
2022-09-02T09:47:40.880Z,16.45
2022-09-02T09:50:43.036Z,16.47
2022-09-02T09:53:45.032Z,16.50
2022-09-02T09:56:47.417Z,16.68
2022-09-02T09:59:49.475Z,16.69
2022-09-02T10:02:53.508Z,16.90
2022-09-02T10:05:56.387Z,17.04
2022-09-02T10:08:59.009Z,17.10
2022-09-02T10:12:01.752Z,17.23
2022-09-02T10:15:03.616Z,17.26
2022-09-02T10:18:12.007Z,17.04
2022-09-02T10:21:21.874Z,16.93
2022-09-02T10:24:32.521Z,17.09
2022-09-02T10:27:40.890Z,17.32
2022-09-02T10:30:47.069Z,17.17
2022-09-02T10:33:56.945Z,17.19
2022-09-02T10:37:09.069Z,17.50
2022-09-02T10:40:13.367Z,17.70
2022-09-02T10:43:25.234Z,17.76
2022-09-02T10:46:32.137Z,17.91
2022-09-02T10:49:51.464Z,17.79
2022-09-02T10:53:03.642Z,17.78
2022-09-02T10:56:09.536Z,17.52
2022-09-02T10:59:14.212Z,17.82
2022-09-02T11:02:20.016Z,18.20
2022-09-02T11:05:23.656Z,18.11
2022-09-02T11:08:32.452Z,17.71
2022-09-02T11:11:38.718Z,17.93
2022-09-02T11:14:46.693Z,18.02
2022-09-02T11:17:53.573Z,17.95
2022-09-02T11:21:00.540Z,18.23
2022-09-02T11:24:05.223Z,18.26
2022-09-02T11:27:32.091Z,18.39
2022-09-02T11:30:38.571Z,17.82
2022-09-02T11:33:46.276Z,18.20
2022-09-02T11:36:48.709Z,18.31
2022-09-02T11:40:06.689Z,18.33
2022-09-02T11:43:26.002Z,18.52
2022-09-02T11:46:45.580Z,18.93
2022-09-02T11:50:08.185Z,18.91
2022-09-02T11:53:18.069Z,19.07
2022-09-02T11:56:25.596Z,19.05
2022-09-02T11:59:42.116Z,18.64
2022-09-02T12:02:46.359Z,18.57
2022-09-02T12:05:50.187Z,18.90
2022-09-02T12:09:09.910Z,19.07
2022-09-02T12:12:40.523Z,19.37
2022-09-02T12:15:42.233Z,19.51
2022-09-02T12:18:45.181Z,19.43
2022-09-02T12:22:04.588Z,19.58
2022-09-02T12:25:21.301Z,19.54
2022-09-02T12:28:30.627Z,19.51
2022-09-02T12:31:39.856Z,19.16
2022-09-02T12:35:07.132Z,19.56
2022-09-02T12:38:39.158Z,19.70
2022-09-02T12:41:44.126Z,19.76
2022-09-02T12:44:50.978Z,19.80
2022-09-02T12:47:56.759Z,19.96
2022-09-02T12:50:59.255Z,19.37
2022-09-02T12:54:01.524Z,19.80
2022-09-02T12:57:03.217Z,20.16
2022-09-02T13:00:07.054Z,20.07
2022-09-02T13:03:18.145Z,20.26
2022-09-02T13:06:25.422Z,20.25
2022-09-02T13:09:48.056Z,20.24
2022-09-02T13:13:04.582Z,20.28
2022-09-02T13:16:18.677Z,20.35
2022-09-02T13:19:43.907Z,20.15
2022-09-02T13:22:55.642Z,20.20
2022-09-02T13:26:04.687Z,20.17
2022-09-02T13:29:26.017Z,20.16
2022-09-02T13:32:29.902Z,20.43
2022-09-02T13:35:32.049Z,20.32
2022-09-02T13:38:33.774Z,20.00
2022-09-02T13:41:35.540Z,20.28
2022-09-02T13:44:37.196Z,20.44
2022-09-02T13:47:43.519Z,20.57
2022-09-02T13:50:46.232Z,20.88
2022-09-02T13:54:18.925Z,20.63
2022-09-02T13:57:12.720Z,20.77
2022-09-02T14:00:15.665Z,20.82
2022-09-02T14:03:19.885Z,20.72
2022-09-02T14:06:23.631Z,20.86
2022-09-02T14:09:26.596Z,20.57
2022-09-02T14:12:29.710Z,20.69
2022-09-02T14:15:32.142Z,20.54
2022-09-02T14:18:35.282Z,20.24
2022-09-02T14:21:43.918Z,20.32
2022-09-02T14:24:45.607Z,20.94
2022-09-02T14:27:51.116Z,20.73
2022-09-02T14:31:00.250Z,20.70
2022-09-02T14:34:03.607Z,21.05
2022-09-02T14:37:15.660Z,21.12
2022-09-02T14:40:20.298Z,20.75
2022-09-02T14:43:22.003Z,21.26
2022-09-02T14:46:26.078Z,21.30
2022-09-02T14:49:30.952Z,21.44
2022-09-02T14:52:34.155Z,21.57
2022-09-02T14:55:46.640Z,21.72
2022-09-02T14:58:48.954Z,21.69
2022-09-02T15:01:51.927Z,21.69
2022-09-02T15:04:55.601Z,21.85
2022-09-02T15:07:57.292Z,21.95
2022-09-02T15:10:59.861Z,21.83
2022-09-02T15:14:01.652Z,21.79
2022-09-02T15:17:03.781Z,21.92
2022-09-02T15:20:07.574Z,21.95
2022-09-02T15:23:12.773Z,22.14
2022-09-02T15:26:15.033Z,22.12
2022-09-02T15:29:16.719Z,22.40
2022-09-02T15:32:18.467Z,22.55
2022-09-02T15:35:21.484Z,22.61
2022-09-02T15:38:23.167Z,22.62
2022-09-02T15:41:27.271Z,22.86
2022-09-02T15:44:29.294Z,22.94
2022-09-02T15:47:31.048Z,22.89
2022-09-02T15:50:34.310Z,22.80
2022-09-02T15:53:36.156Z,22.75
2022-09-02T15:56:39.056Z,22.96
2022-09-02T15:59:40.716Z,23.24
2022-09-02T16:02:42.455Z,23.13
2022-09-02T16:05:45.519Z,23.36
2022-09-02T16:08:47.459Z,23.65
2022-09-02T16:11:49.942Z,23.95
2022-09-02T16:14:51.609Z,24.14
2022-09-02T16:17:53.280Z,24.32
2022-09-02T16:20:56.729Z,24.21
2022-09-02T16:23:58.534Z,24.31
2022-09-02T16:27:00.154Z,24.58
2022-09-02T16:30:01.768Z,24.51
2022-09-02T16:33:03.420Z,24.68
2022-09-02T16:36:07.579Z,24.83
2022-09-02T16:39:09.811Z,24.61
2022-09-02T16:42:11.486Z,24.91
2022-09-02T16:45:13.232Z,24.93
2022-09-02T16:48:15.117Z,25.12
2022-09-02T16:51:18.590Z,25.33
2022-09-02T16:54:21.367Z,25.36
2022-09-02T16:57:33.669Z,25.30
2022-09-02T17:00:35.464Z,25.40
2022-09-02T17:03:37.171Z,25.39
2022-09-02T17:06:42.332Z,25.30
2022-09-02T17:09:44.158Z,24.86
2022-09-02T17:12:45.761Z,24.29
2022-09-02T17:15:48.813Z,23.39
2022-09-02T17:18:50.497Z,23.17
2022-09-02T17:21:56.786Z,22.63
2022-09-02T17:24:58.455Z,22.43
2022-09-02T17:28:00.084Z,22.19
2022-09-02T17:31:01.803Z,22.04
2022-09-02T17:34:04.579Z,21.91
2022-09-02T17:37:07.655Z,21.43
2022-09-02T17:40:09.615Z,21.08
2022-09-02T17:43:11.303Z,20.82
2022-09-02T17:46:13.047Z,20.83
2022-09-02T17:49:17.322Z,20.62
2022-09-02T17:52:21.932Z,20.24
2022-09-02T17:55:23.575Z,20.10
2022-09-02T17:58:25.837Z,20.04
2022-09-02T18:01:31.309Z,19.93
2022-09-02T18:04:38.384Z,19.91
2022-09-02T18:07:43.364Z,19.76
2022-09-02T18:10:49.047Z,19.62
2022-09-02T18:13:56.303Z,19.64
2022-09-02T18:17:01.881Z,19.26
2022-09-02T18:20:07.008Z,19.19
2022-09-02T18:23:24.653Z,18.99
2022-09-02T18:26:30.837Z,18.92
2022-09-02T18:29:42.271Z,18.70
2022-09-02T18:33:02.917Z,18.57
2022-09-02T18:36:10.610Z,18.52
2022-09-02T18:39:33.304Z,18.43
2022-09-02T18:42:42.841Z,18.42
2022-09-02T18:45:47.581Z,18.32
2022-09-02T18:48:53.524Z,18.33
2022-09-02T18:51:58.929Z,18.23
2022-09-02T18:55:06.502Z,18.30
2022-09-02T18:58:10.379Z,18.32
2022-09-02T19:01:16.631Z,18.16
2022-09-02T19:04:18.606Z,18.05
2022-09-02T19:07:20.762Z,18.12
2022-09-02T19:10:24.110Z,18.06
2022-09-02T19:13:25.876Z,17.93
2022-09-02T19:16:28.698Z,18.00
2022-09-02T19:19:30.736Z,17.99
2022-09-02T19:22:34.059Z,18.04
2022-09-02T19:25:37.396Z,17.87
2022-09-02T19:28:39.396Z,17.82
2022-09-02T19:31:42.591Z,17.88
2022-09-02T19:34:45.587Z,17.71
2022-09-02T19:37:51.509Z,17.73
2022-09-02T19:40:55.035Z,17.68
2022-09-02T19:43:56.985Z,17.60
2022-09-02T19:50:20.693Z,17.10
2022-09-02T19:53:23.754Z,17.22
2022-09-02T19:56:27.155Z,17.35
2022-09-02T19:59:29.015Z,17.28
2022-09-02T20:02:30.833Z,17.23
2022-09-02T20:05:32.615Z,17.21
2022-09-02T20:08:34.314Z,17.26
2022-09-02T20:11:37.365Z,17.34
2022-09-02T20:14:42.805Z,17.37
2022-09-02T20:17:44.641Z,17.31
2022-09-02T20:20:47.420Z,17.21
2022-09-02T20:23:49.101Z,17.15
2022-09-02T20:26:55.653Z,17.00
2022-09-02T20:30:03.613Z,17.06
2022-09-02T20:33:11.376Z,17.04
2022-09-02T20:36:21.059Z,16.84
2022-09-02T20:39:31.348Z,16.71
2022-09-02T20:42:43.138Z,16.81
2022-09-02T20:45:48.026Z,16.72
2022-09-02T20:48:57.035Z,16.63
2022-09-02T20:52:02.365Z,16.57
2022-09-02T20:55:09.255Z,16.59
2022-09-02T20:58:20.208Z,16.66
2022-09-02T21:01:24.548Z,16.63
2022-09-02T21:04:34.218Z,16.66
2022-09-02T21:07:38.952Z,16.60
2022-09-02T21:10:45.813Z,16.52
2022-09-02T21:13:51.505Z,16.22
2022-09-02T21:16:57.766Z,16.30
2022-09-02T21:20:06.755Z,16.34
2022-09-02T21:23:11.039Z,16.19
2022-09-02T21:26:15.601Z,16.17
2022-09-02T21:29:21.487Z,16.26
2022-09-02T21:32:28.519Z,16.15
2022-09-02T21:35:35.411Z,15.97
2022-09-02T21:38:39.332Z,16.00
2022-09-02T21:41:44.030Z,15.84
2022-09-02T21:44:53.043Z,16.02
2022-09-02T21:47:59.006Z,16.02
2022-09-02T21:51:01.573Z,15.89
2022-09-02T21:54:26.694Z,15.92
2022-09-02T21:57:40.087Z,15.72
2022-09-02T22:00:45.806Z,15.56
2022-09-02T22:03:49.667Z,15.32
2022-09-02T22:06:56.844Z,15.49
2022-09-02T22:10:03.257Z,15.48
2022-09-02T22:13:05.513Z,15.33
2022-09-02T22:16:16.014Z,15.18
2022-09-02T22:19:18.675Z,15.15
2022-09-02T22:22:21.879Z,15.34
2022-09-02T22:25:24.267Z,15.37
2022-09-02T22:28:30.101Z,15.20
2022-09-02T22:31:35.884Z,15.28
2022-09-02T22:34:42.340Z,15.37
2022-09-02T22:37:49.178Z,15.35
2022-09-02T22:40:57.102Z,15.35
2022-09-02T22:44:02.829Z,15.45
2022-09-02T22:47:08.583Z,15.55
2022-09-02T22:50:12.305Z,15.47
2022-09-02T22:53:13.999Z,15.58
2022-09-02T22:56:21.575Z,15.60
2022-09-02T22:59:34.008Z,15.63
2022-09-02T23:02:38.697Z,15.70
2022-09-02T23:05:45.195Z,15.78
2022-09-02T23:08:47.036Z,15.72
2022-09-02T23:11:55.609Z,15.73
2022-09-02T23:15:05.891Z,15.77
2022-09-02T23:18:12.625Z,15.68
2022-09-02T23:21:16.589Z,15.73
2022-09-02T23:24:25.315Z,15.72
2022-09-02T23:27:31.632Z,15.65
2022-09-02T23:30:33.254Z,15.52
2022-09-02T23:33:46.389Z,15.62
2022-09-02T23:36:53.380Z,15.50
2022-09-02T23:40:00.362Z,15.43
2022-09-02T23:43:02.244Z,15.42
2022-09-02T23:46:09.318Z,15.48
2022-09-02T23:49:17.823Z,15.52
2022-09-02T23:52:24.126Z,15.51
2022-09-02T23:55:30.810Z,15.47
2022-09-02T23:58:46.266Z,15.42
